createdAt,value
2023-03-06T00:02:25.295Z,6.57
2023-03-06T00:04:53.231Z,1.00
2023-03-06T00:07:19.747Z,1.27
2023-03-06T00:09:46.253Z,2.23
2023-03-06T00:12:12.854Z,1.52
2023-03-06T00:14:39.384Z,1.60
2023-03-06T00:17:05.906Z,1.25
2023-03-06T00:19:32.485Z,1.67
2023-03-06T00:21:59.005Z,1.33
2023-03-06T00:24:25.464Z,0.98
2023-03-06T00:26:52.013Z,1.48
2023-03-06T00:29:18.540Z,2.17
2023-03-06T00:31:47.895Z,1.40
2023-03-06T00:34:15.013Z,2.77
2023-03-06T00:36:41.893Z,1.70
2023-03-06T00:39:08.420Z,1.58
2023-03-06T00:41:34.936Z,1.58
2023-03-06T00:44:01.442Z,2.63
2023-03-06T00:46:28.015Z,2.67
2023-03-06T00:48:54.544Z,2.25
2023-03-06T00:51:21.735Z,2.33
2023-03-06T00:53:48.677Z,2.03
2023-03-06T00:56:15.183Z,1.20
2023-03-06T00:58:41.675Z,2.37
2023-03-06T01:01:08.401Z,2.00
2023-03-06T01:03:34.885Z,3.60
2023-03-06T01:06:01.486Z,2.97
2023-03-06T01:08:27.980Z,2.28
2023-03-06T01:10:54.550Z,5.47
2023-03-06T01:13:21.153Z,2.70
2023-03-06T01:15:47.795Z,2.72
2023-03-06T01:18:15.292Z,2.55
2023-03-06T01:20:42.140Z,2.35
2023-03-06T01:23:08.636Z,1.83
2023-03-06T01:25:35.200Z,3.00
2023-03-06T01:28:01.805Z,4.38
2023-03-06T01:30:28.357Z,2.60
2023-03-06T01:32:54.838Z,3.47
2023-03-06T01:35:21.335Z,2.80
2023-03-06T01:37:47.775Z,3.28
2023-03-06T01:40:14.599Z,3.63
2023-03-06T01:42:41.947Z,3.65
2023-03-06T01:45:11.412Z,2.88
2023-03-06T01:47:37.893Z,6.27
2023-03-06T01:50:07.104Z,6.55
2023-03-06T01:52:40.084Z,2.83
2023-03-06T01:55:14.403Z,4.88
2023-03-06T01:57:44.924Z,3.22
2023-03-06T02:00:19.292Z,7.03
2023-03-06T02:02:53.193Z,2.70
2023-03-06T02:05:19.800Z,4.80
2023-03-06T02:07:48.249Z,3.40
2023-03-06T02:10:15.981Z,3.38
2023-03-06T02:12:46.310Z,3.53
2023-03-06T02:15:14.767Z,6.00
2023-03-06T02:17:43.977Z,4.13
2023-03-06T02:20:20.855Z,5.00
2023-03-06T02:23:02.372Z,4.78
2023-03-06T02:25:37.228Z,5.33
2023-03-06T02:28:06.067Z,5.10
2023-03-06T02:30:33.406Z,6.25
2023-03-06T02:33:00.308Z,4.55
2023-03-06T02:35:32.790Z,5.03
2023-03-06T02:38:04.731Z,4.70
2023-03-06T02:40:31.283Z,4.70
2023-03-06T02:42:58.671Z,5.38
2023-03-06T02:45:40.648Z,5.93
2023-03-06T02:48:07.612Z,6.95
2023-03-06T02:50:34.137Z,5.70
2023-03-06T02:53:00.703Z,8.15
2023-03-06T02:55:27.518Z,6.32
2023-03-06T02:57:54.036Z,6.50
2023-03-06T03:00:20.795Z,8.82
2023-03-06T03:02:47.330Z,7.33
2023-03-06T03:05:14.296Z,6.93
2023-03-06T03:07:41.007Z,8.38
2023-03-06T03:10:08.427Z,6.00
2023-03-06T03:12:35.008Z,8.63
2023-03-06T03:15:01.555Z,6.53
2023-03-06T03:17:28.635Z,6.40
2023-03-06T03:19:55.238Z,9.32
2023-03-06T03:22:21.724Z,8.20
2023-03-06T03:24:48.300Z,8.57
2023-03-06T03:27:15.343Z,6.87
2023-03-06T03:29:42.718Z,5.22
2023-03-06T03:32:09.921Z,9.35
2023-03-06T03:34:36.412Z,8.18
2023-03-06T03:37:02.965Z,8.25
2023-03-06T03:39:29.475Z,6.60
2023-03-06T03:41:55.998Z,5.47
2023-03-06T03:44:22.651Z,7.15
2023-03-06T03:46:49.319Z,6.88
2023-03-06T03:49:16.024Z,7.15
2023-03-06T03:51:42.551Z,7.27
2023-03-06T03:54:09.012Z,5.03
2023-03-06T03:56:35.554Z,6.45
2023-03-06T03:59:02.412Z,6.05
2023-03-06T04:01:29.085Z,5.53
2023-03-06T04:03:55.652Z,5.20
2023-03-06T04:06:22.242Z,4.25
2023-03-06T04:08:48.853Z,5.40
2023-03-06T04:11:15.887Z,5.38
2023-03-06T04:13:42.388Z,6.63
2023-03-06T04:16:08.972Z,7.37
2023-03-06T04:18:35.638Z,8.73
2023-03-06T04:21:02.121Z,4.10
2023-03-06T04:23:28.847Z,7.35
2023-03-06T04:25:55.415Z,6.43
2023-03-06T04:28:21.977Z,5.73
2023-03-06T04:30:48.488Z,5.03
2023-03-06T04:33:15.309Z,7.05
2023-03-06T04:35:41.825Z,6.55
2023-03-06T04:38:08.584Z,6.22
2023-03-06T04:40:36.592Z,5.60
2023-03-06T04:43:04.197Z,5.13
2023-03-06T04:45:32.346Z,5.35
2023-03-06T04:47:59.345Z,4.53
2023-03-06T04:50:28.171Z,5.13
2023-03-06T04:52:54.728Z,5.60
2023-03-06T04:55:21.391Z,4.70
2023-03-06T04:57:48.484Z,3.78
2023-03-06T05:00:21.103Z,4.90
2023-03-06T05:02:48.812Z,3.28
2023-03-06T05:05:16.486Z,4.53
2023-03-06T05:07:43.342Z,3.30
2023-03-06T05:10:15.700Z,4.78
2023-03-06T05:12:42.858Z,3.63
2023-03-06T05:15:10.754Z,4.30
2023-03-06T05:17:37.872Z,3.03
2023-03-06T05:20:07.433Z,2.35
2023-03-06T05:22:34.937Z,3.00
2023-03-06T05:25:01.835Z,3.35
2023-03-06T05:27:29.039Z,3.33
2023-03-06T05:29:55.718Z,2.30
2023-03-06T05:32:22.913Z,2.45
2023-03-06T05:34:50.180Z,1.85
2023-03-06T05:37:16.892Z,3.03
2023-03-06T05:39:43.700Z,3.38
2023-03-06T05:42:10.449Z,2.10
2023-03-06T05:44:38.025Z,2.65
2023-03-06T05:47:04.809Z,2.60
2023-03-06T05:49:33.695Z,1.83
2023-03-06T05:52:01.299Z,3.13
2023-03-06T05:54:27.795Z,4.00
2023-03-06T05:56:54.336Z,7.30
2023-03-06T05:59:20.806Z,2.40
2023-03-06T06:01:47.269Z,2.38
2023-03-06T06:04:13.773Z,3.55
2023-03-06T06:06:40.529Z,2.13
2023-03-06T06:09:07.053Z,3.50
2023-03-06T06:11:33.550Z,2.38
2023-03-06T06:14:00.088Z,4.80
2023-03-06T06:16:26.615Z,3.55
2023-03-06T06:18:53.089Z,2.90
2023-03-06T06:21:19.583Z,2.55
2023-03-06T06:23:46.221Z,2.00
2023-03-06T06:26:12.705Z,1.42
2023-03-06T06:28:39.201Z,0.70
2023-03-06T06:31:13.194Z,1.60
2023-03-06T06:33:40.961Z,1.30
2023-03-06T06:36:18.910Z,2.10
2023-03-06T06:38:45.488Z,1.20
2023-03-06T06:41:36.000Z,1.10
2023-03-06T06:43:59.377Z,1.00
2023-03-06T06:47:14.338Z,2.60
2023-03-06T06:49:13.826Z,1.95
2023-03-06T06:51:41.271Z,0.82
2023-03-06T06:54:08.717Z,0.73
2023-03-06T06:56:35.442Z,1.53
2023-03-06T06:59:15.557Z,1.70
2023-03-06T07:01:43.544Z,0.88
2023-03-06T07:04:14.844Z,1.38
2023-03-06T07:06:42.557Z,1.33
2023-03-06T07:09:09.382Z,0.73
2023-03-06T07:11:37.872Z,1.77
2023-03-06T07:14:04.466Z,0.68
2023-03-06T07:16:30.964Z,0.68
2023-03-06T07:18:57.587Z,1.38
2023-03-06T07:21:24.380Z,0.50
2023-03-06T07:23:50.887Z,1.92
2023-03-06T07:26:17.385Z,0.40
2023-03-06T07:28:52.266Z,1.50
2023-03-06T07:31:25.733Z,0.50
2023-03-06T07:33:53.789Z,0.77
2023-03-06T07:36:22.500Z,0.50
2023-03-06T07:38:49.213Z,3.08
2023-03-06T07:41:16.568Z,0.40
2023-03-06T07:43:44.865Z,2.05
2023-03-06T07:46:12.776Z,1.27
2023-03-06T07:48:40.427Z,0.57
2023-03-06T07:51:27.355Z,0.35
2023-03-06T07:53:54.231Z,0.52
2023-03-06T07:56:20.933Z,0.10
2023-03-06T07:58:48.137Z,1.93
2023-03-06T08:01:17.689Z,0.35
2023-03-06T08:03:44.243Z,0.52
2023-03-06T08:06:19.428Z,0.57
2023-03-06T08:08:47.269Z,0.77
2023-03-06T08:11:15.940Z,0.30
2023-03-06T08:13:43.038Z,1.90
2023-03-06T08:16:10.484Z,1.08
2023-03-06T08:18:39.548Z,0.10
2023-03-06T08:21:07.706Z,0.10
2023-03-06T08:23:35.229Z,0.60
2023-03-06T08:26:07.717Z,0.28
2023-03-06T08:28:34.612Z,0.47
2023-03-06T08:31:12.958Z,0.47
2023-03-06T08:33:40.826Z,1.58
2023-03-06T08:36:07.675Z,0.13
2023-03-06T08:38:34.211Z,0.10
2023-03-06T08:41:00.872Z,0.25
2023-03-06T08:43:27.520Z,1.05
2023-03-06T08:45:55.431Z,1.83
2023-03-06T08:48:21.923Z,4.90
2023-03-06T08:50:49.067Z,0.95
2023-03-06T08:53:15.600Z,0.40
2023-03-06T08:55:42.251Z,0.40
2023-03-06T08:58:08.973Z,0.57
2023-03-06T09:00:36.681Z,0.27
2023-03-06T09:03:03.859Z,0.45
2023-03-06T09:05:30.502Z,0.13
2023-03-06T09:07:57.049Z,0.70
2023-03-06T09:10:25.170Z,0.20
2023-03-06T09:12:54.729Z,1.03
2023-03-06T09:15:22.144Z,0.28
2023-03-06T09:17:48.688Z,0.00
2023-03-06T09:20:15.834Z,0.10
2023-03-06T09:22:42.538Z,1.10
2023-03-06T09:25:11.095Z,1.70
2023-03-06T09:27:37.636Z,2.20
2023-03-06T09:30:04.849Z,0.70
2023-03-06T09:32:31.373Z,1.17
2023-03-06T09:34:57.866Z,1.05
2023-03-06T09:37:24.622Z,0.53
2023-03-06T09:39:51.245Z,0.43
2023-03-06T09:42:21.390Z,1.15
2023-03-06T09:44:55.981Z,0.30
2023-03-06T09:47:49.378Z,0.55
2023-03-06T09:50:26.393Z,0.20
2023-03-06T09:53:15.417Z,0.20
2023-03-06T09:55:50.221Z,0.25
2023-03-06T09:58:22.012Z,0.20
2023-03-06T10:01:12.663Z,0.22
2023-03-06T10:03:48.546Z,1.10
2023-03-06T10:06:25.089Z,0.30
2023-03-06T10:09:14.514Z,0.60
2023-03-06T10:11:56.565Z,0.22
2023-03-06T10:14:41.625Z,0.05
2023-03-06T10:17:17.731Z,0.27
2023-03-06T10:19:47.596Z,0.32
2023-03-06T10:22:20.383Z,0.28
2023-03-06T10:25:20.439Z,1.13
2023-03-06T10:27:57.501Z,0.17
2023-03-06T10:30:38.853Z,0.73
2023-03-06T10:33:11.315Z,0.68
2023-03-06T10:35:53.255Z,0.22
2023-03-06T10:38:31.887Z,0.93
2023-03-06T10:41:29.785Z,0.32
2023-03-06T10:44:05.470Z,0.20
2023-03-06T10:46:37.538Z,0.08
2023-03-06T10:49:23.540Z,1.05
2023-03-06T10:52:06.770Z,0.93
2023-03-06T10:54:39.764Z,0.70
2023-03-06T10:57:30.902Z,0.10
2023-03-06T11:00:20.659Z,0.28
2023-03-06T11:02:47.233Z,0.98
2023-03-06T11:05:20.978Z,0.70
2023-03-06T11:07:57.048Z,0.50
2023-03-06T11:10:24.430Z,1.33
2023-03-06T11:13:10.416Z,0.20
2023-03-06T11:15:36.976Z,0.10
2023-03-06T11:18:04.990Z,0.22
2023-03-06T11:20:51.615Z,0.93
2023-03-06T11:23:22.263Z,1.13
2023-03-06T11:25:54.890Z,0.10
2023-03-06T11:28:30.484Z,0.13
2023-03-06T11:31:09.756Z,0.80
2023-03-06T11:33:51.632Z,0.10
2023-03-06T11:36:36.193Z,0.30
2023-03-06T11:39:29.797Z,1.48
2023-03-06T11:42:10.929Z,0.28
2023-03-06T11:45:13.580Z,2.05
2023-03-06T11:47:49.237Z,0.63
2023-03-06T11:50:31.022Z,0.37
2023-03-06T11:53:00.033Z,1.10
2023-03-06T11:55:29.497Z,2.70
2023-03-06T11:58:23.820Z,0.28
2023-03-06T12:00:54.741Z,0.40
2023-03-06T12:03:49.028Z,0.67
2023-03-06T12:06:15.477Z,1.45
2023-03-06T12:08:51.408Z,0.50
2023-03-06T12:11:30.698Z,0.40
2023-03-06T12:14:36.111Z,2.67
2023-03-06T12:17:13.094Z,0.53
2023-03-06T12:19:52.086Z,0.43
2023-03-06T12:22:41.311Z,2.33
2023-03-06T12:25:27.868Z,1.33
2023-03-06T12:28:19.231Z,2.35
2023-03-06T12:31:09.556Z,1.47
2023-03-06T12:33:59.261Z,1.05
2023-03-06T12:36:42.580Z,1.25
2023-03-06T12:39:26.048Z,0.70
2023-03-06T12:42:02.504Z,0.77
2023-03-06T12:45:04.238Z,1.33
2023-03-06T12:47:36.407Z,1.95
2023-03-06T12:50:13.770Z,0.73
2023-03-06T12:52:41.656Z,2.28
2023-03-06T12:55:16.579Z,2.42
2023-03-06T12:57:43.323Z,2.40
2023-03-06T13:00:35.179Z,0.85
2023-03-06T13:03:30.419Z,1.05
2023-03-06T13:06:20.847Z,0.93
2023-03-06T13:09:09.336Z,1.98
2023-03-06T13:12:24.987Z,0.90
2023-03-06T13:14:54.896Z,1.40
2023-03-06T13:17:28.507Z,2.15
2023-03-06T13:20:13.427Z,1.92
2023-03-06T13:22:42.278Z,2.30
2023-03-06T13:25:21.147Z,2.23
2023-03-06T13:28:03.273Z,1.73
2023-03-06T13:30:38.869Z,2.30
2023-03-06T13:33:26.763Z,3.47
2023-03-06T13:35:59.058Z,3.17
2023-03-06T13:38:33.536Z,3.53
2023-03-06T13:41:25.031Z,3.65
2023-03-06T13:43:54.028Z,3.65
2023-03-06T13:46:25.801Z,2.58
2023-03-06T13:49:07.637Z,6.45
2023-03-06T13:51:40.221Z,5.77
2023-03-06T13:54:44.131Z,4.05
2023-03-06T13:57:29.905Z,4.22
2023-03-06T14:00:15.278Z,3.17
2023-03-06T14:02:55.109Z,6.82
2023-03-06T14:05:22.867Z,4.00
2023-03-06T14:08:15.840Z,4.18
2023-03-06T14:10:45.112Z,4.82
2023-03-06T14:13:22.198Z,6.05
2023-03-06T14:15:51.715Z,4.18
2023-03-06T14:18:25.596Z,4.80
2023-03-06T14:20:59.390Z,5.50
2023-03-06T14:23:29.073Z,3.10
2023-03-06T14:26:07.744Z,3.50
2023-03-06T14:28:35.389Z,5.15
2023-03-06T14:31:04.432Z,3.77
2023-03-06T14:33:36.875Z,4.22
2023-03-06T14:36:08.219Z,3.70
2023-03-06T14:38:42.261Z,3.00
2023-03-06T14:41:11.796Z,4.20
2023-03-06T14:43:39.512Z,2.63
2023-03-06T14:46:06.919Z,3.00
2023-03-06T14:48:45.375Z,2.70
2023-03-06T14:51:33.272Z,2.42
2023-03-06T14:54:02.168Z,2.30
2023-03-06T14:56:30.385Z,2.40
2023-03-06T14:59:01.221Z,4.65
2023-03-06T15:01:31.398Z,2.20
2023-03-06T15:04:00.359Z,4.88
2023-03-06T15:06:33.425Z,2.85
2023-03-06T15:09:21.616Z,4.80
2023-03-06T15:12:01.448Z,2.00
2023-03-06T15:14:37.320Z,2.65
2023-03-06T15:17:16.005Z,2.17
2023-03-06T15:19:42.949Z,3.17
2023-03-06T15:22:30.288Z,3.07
2023-03-06T15:25:20.286Z,3.47
2023-03-06T15:27:57.526Z,2.17
2023-03-06T15:30:26.841Z,2.42
2023-03-06T15:33:29.003Z,2.20
2023-03-06T15:36:01.777Z,4.70
2023-03-06T15:38:46.027Z,3.25
2023-03-06T15:41:28.596Z,1.50
2023-03-06T15:43:55.220Z,3.65
2023-03-06T15:46:21.728Z,3.38
2023-03-06T15:48:55.943Z,3.47
2023-03-06T15:51:23.270Z,2.88
2023-03-06T15:53:50.281Z,3.92
2023-03-06T15:56:21.412Z,4.95
2023-03-06T15:58:48.132Z,3.90
2023-03-06T16:01:17.482Z,4.63
2023-03-06T16:03:45.091Z,5.82
2023-03-06T16:06:26.068Z,4.80
2023-03-06T16:08:53.140Z,4.95
2023-03-06T16:11:35.427Z,5.55
2023-03-06T16:14:18.881Z,8.53
2023-03-06T16:16:45.815Z,10.07
2023-03-06T16:19:25.919Z,8.50
2023-03-06T16:21:53.582Z,6.93
2023-03-06T16:24:20.195Z,8.52
2023-03-06T16:26:50.973Z,8.57
2023-03-06T16:29:19.980Z,9.60
2023-03-06T16:31:46.642Z,9.38
2023-03-06T16:34:14.045Z,11.40
2023-03-06T16:36:41.013Z,10.40
2023-03-06T16:39:16.895Z,12.33
2023-03-06T16:41:44.921Z,13.20
2023-03-06T16:44:12.330Z,9.93
2023-03-06T16:46:41.590Z,9.70
2023-03-06T16:49:12.619Z,10.77
2023-03-06T16:51:40.459Z,10.50
2023-03-06T16:54:06.947Z,9.35
2023-03-06T16:56:33.412Z,11.80
2023-03-06T16:58:59.937Z,11.60
2023-03-06T17:01:26.568Z,10.98
2023-03-06T17:03:53.088Z,11.93
2023-03-06T17:06:21.797Z,9.82
2023-03-06T17:08:49.468Z,14.50
2023-03-06T17:11:17.045Z,10.52
2023-03-06T17:13:44.301Z,12.23
2023-03-06T17:16:18.798Z,16.80
2023-03-06T17:18:46.307Z,15.20
2023-03-06T17:21:15.678Z,11.25
2023-03-06T17:23:42.784Z,14.40
2023-03-06T17:26:20.405Z,10.05
2023-03-06T17:28:47.620Z,10.60
2023-03-06T17:31:19.952Z,11.95
2023-03-06T17:33:46.743Z,10.15
2023-03-06T17:36:16.800Z,12.27
2023-03-06T17:38:43.745Z,12.75
2023-03-06T17:41:10.972Z,12.23
2023-03-06T17:43:38.636Z,13.18
2023-03-06T17:46:10.918Z,10.05
2023-03-06T17:48:37.663Z,10.13
2023-03-06T17:51:04.979Z,12.38
2023-03-06T17:53:31.821Z,10.80
2023-03-06T17:55:58.543Z,17.27
2023-03-06T17:58:26.023Z,11.73
2023-03-06T18:00:52.998Z,11.02
2023-03-06T18:03:19.433Z,11.23
2023-03-06T18:05:45.979Z,11.27
2023-03-06T18:08:12.472Z,17.52
2023-03-06T18:10:43.439Z,11.43
2023-03-06T18:13:10.879Z,13.13
2023-03-06T18:15:41.371Z,11.55
2023-03-06T18:18:08.900Z,13.90
2023-03-06T18:20:41.166Z,13.63
2023-03-06T18:23:07.815Z,14.18
2023-03-06T18:25:34.298Z,14.38
2023-03-06T18:28:00.904Z,12.65
2023-03-06T18:30:27.655Z,13.63
2023-03-06T18:32:54.569Z,11.55
2023-03-06T18:35:21.687Z,14.75
2023-03-06T18:37:48.430Z,16.70
2023-03-06T18:40:15.264Z,13.10
2023-03-06T18:42:42.163Z,11.40
2023-03-06T18:45:09.719Z,12.57
2023-03-06T18:47:36.366Z,18.35
2023-03-06T18:50:03.205Z,14.52
2023-03-06T18:52:29.798Z,12.20
2023-03-06T18:54:56.367Z,13.30
2023-03-06T18:57:22.955Z,14.88
2023-03-06T18:59:49.534Z,15.27
2023-03-06T19:02:16.004Z,12.85
2023-03-06T19:04:42.467Z,14.40
2023-03-06T19:07:09.022Z,14.90
2023-03-06T19:09:35.620Z,13.93
2023-03-06T19:12:03.485Z,18.08
2023-03-06T19:14:30.169Z,14.32
2023-03-06T19:16:56.838Z,14.23
2023-03-06T19:19:26.276Z,13.97
2023-03-06T19:21:53.728Z,14.90
2023-03-06T19:24:20.191Z,13.45
2023-03-06T19:26:46.823Z,13.35
2023-03-06T19:29:13.422Z,13.48
2023-03-06T19:31:40.014Z,17.77
2023-03-06T19:34:06.582Z,17.38
2023-03-06T19:36:34.276Z,15.25
2023-03-06T19:39:03.914Z,13.32
2023-03-06T19:41:30.814Z,17.50
2023-03-06T19:44:02.198Z,17.10
2023-03-06T19:46:29.024Z,17.27
2023-03-06T19:49:00.765Z,17.00
2023-03-06T19:51:28.373Z,17.25
2023-03-06T19:53:57.446Z,18.15
2023-03-06T19:56:27.610Z,15.37
2023-03-06T19:58:54.926Z,17.77
2023-03-06T20:01:24.778Z,20.42
2023-03-06T20:04:00.420Z,17.48
2023-03-06T20:06:36.762Z,16.38
2023-03-06T20:09:08.356Z,17.00
2023-03-06T20:11:34.836Z,17.65
2023-03-06T20:14:03.361Z,15.70
2023-03-06T20:16:30.698Z,16.92
2023-03-06T20:18:58.966Z,16.85
2023-03-06T20:21:26.724Z,18.93
2023-03-06T20:23:54.860Z,17.90
2023-03-06T20:26:21.437Z,18.23
2023-03-06T20:28:48.221Z,19.75
2023-03-06T20:31:17.820Z,19.00
2023-03-06T20:33:50.215Z,15.17
2023-03-06T20:36:19.909Z,17.10
2023-03-06T20:38:47.038Z,16.48
2023-03-06T20:41:26.007Z,15.95
2023-03-06T20:43:53.099Z,17.33
2023-03-06T20:46:21.433Z,18.60
2023-03-06T20:48:50.611Z,14.98
2023-03-06T20:51:18.594Z,17.55
2023-03-06T20:53:47.451Z,14.23
2023-03-06T20:56:15.786Z,16.30
2023-03-06T20:58:42.760Z,17.60
2023-03-06T21:01:09.289Z,16.27
2023-03-06T21:03:35.760Z,15.77
2023-03-06T21:06:02.382Z,16.83
2023-03-06T21:08:28.905Z,14.07
2023-03-06T21:10:55.365Z,18.43
2023-03-06T21:13:21.834Z,13.85
2023-03-06T21:15:49.119Z,13.57
2023-03-06T21:18:15.702Z,17.38
2023-03-06T21:20:42.352Z,13.25
2023-03-06T21:23:09.190Z,15.80
2023-03-06T21:25:36.247Z,14.80
2023-03-06T21:28:03.139Z,13.50
2023-03-06T21:30:29.819Z,15.32
2023-03-06T21:32:56.391Z,14.07
2023-03-06T21:35:22.936Z,13.60
2023-03-06T21:37:49.541Z,12.50
2023-03-06T21:40:16.191Z,13.00
2023-03-06T21:42:42.752Z,15.48
2023-03-06T21:45:09.655Z,11.77
2023-03-06T21:47:40.904Z,11.87
2023-03-06T21:50:09.626Z,11.65
2023-03-06T21:52:36.234Z,13.40
2023-03-06T21:55:02.909Z,13.18
2023-03-06T21:57:29.518Z,12.75
2023-03-06T21:59:56.121Z,11.13
2023-03-06T22:02:22.847Z,13.13
2023-03-06T22:04:52.047Z,10.18
2023-03-06T22:07:19.479Z,7.45
2023-03-06T22:09:46.247Z,8.13
2023-03-06T22:12:12.762Z,6.47
2023-03-06T22:14:39.337Z,7.43
2023-03-06T22:17:05.851Z,7.93
2023-03-06T22:19:32.607Z,7.93
2023-03-06T22:21:59.216Z,7.57
2023-03-06T22:24:25.762Z,5.60
2023-03-06T22:26:52.413Z,6.28
2023-03-06T22:29:18.905Z,5.10
2023-03-06T22:31:45.518Z,4.57
2023-03-06T22:34:12.086Z,3.70
2023-03-06T22:36:38.717Z,3.67
2023-03-06T22:39:05.286Z,4.10
2023-03-06T22:41:32.024Z,3.83
2023-03-06T22:44:00.683Z,3.28
2023-03-06T22:46:27.724Z,3.70
2023-03-06T22:48:59.290Z,3.50
2023-03-06T22:51:27.449Z,3.38
2023-03-06T22:53:54.036Z,3.67
2023-03-06T22:56:21.752Z,3.03
2023-03-06T22:58:48.669Z,3.47
2023-03-06T23:01:27.219Z,3.63
2023-03-06T23:03:56.418Z,4.15
2023-03-06T23:06:24.308Z,4.10
2023-03-06T23:08:57.394Z,4.05
2023-03-06T23:11:25.467Z,5.25
2023-03-06T23:13:53.247Z,4.20
2023-03-06T23:16:20.128Z,3.92
2023-03-06T23:18:46.871Z,3.47
2023-03-06T23:21:16.125Z,4.25
2023-03-06T23:23:44.266Z,3.55
2023-03-06T23:26:13.473Z,6.83
2023-03-06T23:28:40.989Z,5.25
2023-03-06T23:31:20.660Z,9.65
2023-03-06T23:33:48.189Z,7.43
2023-03-06T23:36:16.910Z,7.07
2023-03-06T23:38:44.008Z,6.27
2023-03-06T23:41:13.499Z,3.45
2023-03-06T23:43:40.311Z,6.75
2023-03-06T23:46:07.721Z,4.38
2023-03-06T23:48:35.839Z,6.35
2023-03-06T23:51:12.892Z,6.17
2023-03-06T23:53:39.445Z,7.38
2023-03-06T23:56:06.877Z,4.05
2023-03-06T23:58:33.601Z,5.43
